Alts del Alba, Puerto Rico
Current Conditions -  °F | °C
As of 11:46 AM on Thursday 29 Jan 2015 (Local Time) from TJIG Reporting Station
Scattered Clouds Scattered Clouds  
Wind Chill: 27°   Ceiling: Unl
Heat Index: 29°   Visibility: 10mi
Dew Point: 21°   Wind: 12mph
Humidity: 70%   Direction: 100°E
Pressure: 30.06"   Gusts: NA
Location:  18.1304°N, 66.4926°W
Report Text: TJIG 291546Z 10010KT 10SM SCT030 SCT080 27/21 A3006 RMK RY09 IN USE ATIS F
Loading
Personal Weather Stations






























Interactive Weather Map New forecast layout! Learn more

10-Day Weather Forecast

Advertisements
Track Severe Weather on mobile